sensor_id;sensor_type;location;lat;lon;timestamp;P1;durP1;ratioP1;P2;durP2;ratioP2
7517;SDS011;3800;48.922;9.444;2023-09-07T00:02:11;4.10;;;3.67;;
7517;SDS011;3800;48.922;9.444;2023-09-07T00:04:39;4.70;;;4.30;;
7517;SDS011;3800;48.922;9.444;2023-09-07T00:07:08;6.30;;;4.37;;
7517;SDS011;3800;48.922;9.444;2023-09-07T00:09:37;5.07;;;4.20;;
7517;SDS011;3800;48.922;9.444;2023-09-07T00:12:05;4.27;;;3.87;;
7517;SDS011;3800;48.922;9.444;2023-09-07T00:14:33;4.60;;;3.80;;
7517;SDS011;3800;48.922;9.444;2023-09-07T00:17:01;4.37;;;3.97;;
7517;SDS011;3800;48.922;9.444;2023-09-07T00:19:30;4.43;;;4.03;;
7517;SDS011;3800;48.922;9.444;2023-09-07T00:21:58;4.80;;;4.30;;
7517;SDS011;3800;48.922;9.444;2023-09-07T00:24:26;6.10;;;4.07;;
7517;SDS011;3800;48.922;9.444;2023-09-07T00:26:55;6.37;;;4.50;;
7517;SDS011;3800;48.922;9.444;2023-09-07T00:29:23;5.07;;;4.10;;
7517;SDS011;3800;48.922;9.444;2023-09-07T00:31:51;4.70;;;4.30;;
7517;SDS011;3800;48.922;9.444;2023-09-07T00:34:19;4.77;;;4.37;;
7517;SDS011;3800;48.922;9.444;2023-09-07T00:36:48;4.70;;;4.20;;
7517;SDS011;3800;48.922;9.444;2023-09-07T00:39:16;3.70;;;3.40;;
7517;SDS011;3800;48.922;9.444;2023-09-07T00:41:45;4.07;;;3.40;;
7517;SDS011;3800;48.922;9.444;2023-09-07T00:44:13;4.07;;;3.57;;
7517;SDS011;3800;48.922;9.444;2023-09-07T00:46:42;5.73;;;3.70;;
7517;SDS011;3800;48.922;9.444;2023-09-07T00:49:11;5.60;;;3.90;;
7517;SDS011;3800;48.922;9.444;2023-09-07T00:51:38;4.27;;;3.87;;
7517;SDS011;3800;48.922;9.444;2023-09-07T00:54:06;4.67;;;3.73;;
7517;SDS011;3800;48.922;9.444;2023-09-07T00:56:36;4.00;;;3.60;;
7517;SDS011;3800;48.922;9.444;2023-09-07T00:59:04;5.13;;;4.63;;
7517;SDS011;3800;48.922;9.444;2023-09-07T01:01:32;7.03;;;4.50;;
7517;SDS011;3800;48.922;9.444;2023-09-07T01:04:01;5.43;;;4.80;;
7517;SDS011;3800;48.922;9.444;2023-09-07T01:06:30;4.83;;;3.93;;
7517;SDS011;3800;48.922;9.444;2023-09-07T01:08:59;4.23;;;3.83;;
7517;SDS011;3800;48.922;9.444;2023-09-07T01:11:26;3.90;;;3.60;;
7517;SDS011;3800;48.922;9.444;2023-09-07T01:13:54;4.70;;;3.87;;
7517;SDS011;3800;48.922;9.444;2023-09-07T01:16:22;5.93;;;4.37;;
7517;SDS011;3800;48.922;9.444;2023-09-07T01:18:51;6.30;;;3.93;;
7517;SDS011;3800;48.922;9.444;2023-09-07T01:21:21;5.33;;;3.80;;
7517;SDS011;3800;48.922;9.444;2023-09-07T01:23:50;3.77;;;3.47;;
7517;SDS011;3800;48.922;9.444;2023-09-07T01:26:18;4.70;;;3.90;;
7517;SDS011;3800;48.922;9.444;2023-09-07T01:28:46;4.30;;;3.90;;
7517;SDS011;3800;48.922;9.444;2023-09-07T01:31:15;5.37;;;3.60;;
7517;SDS011;3800;48.922;9.444;2023-09-07T01:33:43;4.73;;;3.40;;
7517;SDS011;3800;48.922;9.444;2023-09-07T01:36:12;3.90;;;3.50;;
7517;SDS011;3800;48.922;9.444;2023-09-07T01:38:40;3.97;;;3.57;;
7517;SDS011;3800;48.922;9.444;2023-09-07T01:41:08;5.03;;;3.90;;
7517;SDS011;3800;48.922;9.444;2023-09-07T01:43:38;4.57;;;3.77;;
7517;SDS011;3800;48.922;9.444;2023-09-07T01:46:06;4.10;;;3.67;;
7517;SDS011;3800;48.922;9.444;2023-09-07T01:48:34;5.00;;;4.50;;
7517;SDS011;3800;48.922;9.444;2023-09-07T01:51:03;5.33;;;3.97;;
7517;SDS011;3800;48.922;9.444;2023-09-07T01:53:31;4.43;;;4.03;;
7517;SDS011;3800;48.922;9.444;2023-09-07T01:55:59;4.80;;;4.20;;
7517;SDS011;3800;48.922;9.444;2023-09-07T01:58:28;4.30;;;3.90;;
7517;SDS011;3800;48.922;9.444;2023-09-07T02:00:57;4.63;;;3.60;;
7517;SDS011;3800;48.922;9.444;2023-09-07T02:03:25;5.53;;;4.20;;
7517;SDS011;3800;48.922;9.444;2023-09-07T02:05:54;4.30;;;3.90;;
7517;SDS011;3800;48.922;9.444;2023-09-07T02:08:22;4.17;;;3.77;;
7517;SDS011;3800;48.922;9.444;2023-09-07T02:10:51;4.50;;;4.10;;
7517;SDS011;3800;48.922;9.444;2023-09-07T02:13:19;4.17;;;3.87;;
7517;SDS011;3800;48.922;9.444;2023-09-07T02:15:47;4.33;;;3.93;;
7517;SDS011;3800;48.922;9.444;2023-09-07T02:18:15;4.60;;;3.87;;
7517;SDS011;3800;48.922;9.444;2023-09-07T02:20:45;3.83;;;3.43;;
7517;SDS011;3800;48.922;9.444;2023-09-07T02:23:14;4.27;;;3.93;;
7517;SDS011;3800;48.922;9.444;2023-09-07T02:25:42;5.07;;;4.00;;
7517;SDS011;3800;48.922;9.444;2023-09-07T02:28:12;4.40;;;3.70;;
7517;SDS011;3800;48.922;9.444;2023-09-07T02:30:40;5.53;;;3.80;;
7517;SDS011;3800;48.922;9.444;2023-09-07T02:33:10;4.93;;;3.90;;
7517;SDS011;3800;48.922;9.444;2023-09-07T02:35:38;3.60;;;3.30;;
7517;SDS011;3800;48.922;9.444;2023-09-07T02:38:06;3.80;;;3.40;;
7517;SDS011;3800;48.922;9.444;2023-09-07T02:40:43;4.10;;;3.80;;
7517;SDS011;3800;48.922;9.444;2023-09-07T02:43:11;6.03;;;3.50;;
7517;SDS011;3800;48.922;9.444;2023-09-07T02:45:39;3.77;;;3.43;;
7517;SDS011;3800;48.922;9.444;2023-09-07T02:48:07;5.03;;;3.80;;
7517;SDS011;3800;48.922;9.444;2023-09-07T02:50:36;4.40;;;3.80;;
7517;SDS011;3800;48.922;9.444;2023-09-07T02:53:05;5.13;;;3.33;;
7517;SDS011;3800;48.922;9.444;2023-09-07T02:55:35;5.20;;;3.60;;
7517;SDS011;3800;48.922;9.444;2023-09-07T02:58:03;3.80;;;3.47;;
7517;SDS011;3800;48.922;9.444;2023-09-07T03:00:32;5.50;;;3.60;;
7517;SDS011;3800;48.922;9.444;2023-09-07T03:03:01;4.40;;;4.00;;
7517;SDS011;3800;48.922;9.444;2023-09-07T03:05:29;4.30;;;3.80;;
7517;SDS011;3800;48.922;9.444;2023-09-07T03:07:57;4.30;;;3.90;;
7517;SDS011;3800;48.922;9.444;2023-09-07T03:10:25;5.23;;;4.73;;
7517;SDS011;3800;48.922;9.444;2023-09-07T03:12:55;4.37;;;4.07;;
7517;SDS011;3800;48.922;9.444;2023-09-07T03:15:23;6.00;;;4.67;;
7517;SDS011;3800;48.922;9.444;2023-09-07T03:17:52;4.67;;;4.27;;
7517;SDS011;3800;48.922;9.444;2023-09-07T03:20:21;5.67;;;4.47;;
7517;SDS011;3800;48.922;9.444;2023-09-07T03:22:49;5.10;;;4.60;;
7517;SDS011;3800;48.922;9.444;2023-09-07T03:25:17;5.03;;;4.53;;
7517;SDS011;3800;48.922;9.444;2023-09-07T03:27:46;5.83;;;4.10;;
7517;SDS011;3800;48.922;9.444;2023-09-07T03:30:14;5.30;;;4.60;;
7517;SDS011;3800;48.922;9.444;2023-09-07T03:32:43;4.47;;;4.07;;
7517;SDS011;3800;48.922;9.444;2023-09-07T03:35:12;5.03;;;4.10;;
7517;SDS011;3800;48.922;9.444;2023-09-07T03:37:41;4.63;;;4.23;;
7517;SDS011;3800;48.922;9.444;2023-09-07T03:40:10;4.33;;;3.73;;
7517;SDS011;3800;48.922;9.444;2023-09-07T03:42:38;5.03;;;4.60;;
7517;SDS011;3800;48.922;9.444;2023-09-07T03:45:06;4.97;;;4.47;;
7517;SDS011;3800;48.922;9.444;2023-09-07T03:47:35;4.90;;;4.40;;
7517;SDS011;3800;48.922;9.444;2023-09-07T03:50:03;4.60;;;4.20;;
7517;SDS011;3800;48.922;9.444;2023-09-07T03:52:33;4.43;;;4.03;;
7517;SDS011;3800;48.922;9.444;2023-09-07T03:55:01;5.37;;;4.30;;
7517;SDS011;3800;48.922;9.444;2023-09-07T03:57:29;4.83;;;4.27;;
7517;SDS011;3800;48.922;9.444;2023-09-07T03:59:58;4.70;;;4.27;;
7517;SDS011;3800;48.922;9.444;2023-09-07T04:02:27;5.70;;;4.70;;
7517;SDS011;3800;48.922;9.444;2023-09-07T04:04:55;5.23;;;4.20;;
7517;SDS011;3800;48.922;9.444;2023-09-07T04:07:25;6.10;;;4.57;;
7517;SDS011;3800;48.922;9.444;2023-09-07T04:09:53;4.53;;;4.13;;
7517;SDS011;3800;48.922;9.444;2023-09-07T04:12:21;4.47;;;4.07;;
7517;SDS011;3800;48.922;9.444;2023-09-07T04:14:50;4.70;;;3.97;;
7517;SDS011;3800;48.922;9.444;2023-09-07T04:17:19;4.47;;;4.03;;
7517;SDS011;3800;48.922;9.444;2023-09-07T04:19:47;4.67;;;3.70;;
7517;SDS011;3800;48.922;9.444;2023-09-07T04:22:16;4.50;;;4.07;;
7517;SDS011;3800;48.922;9.444;2023-09-07T04:24:47;4.30;;;4.00;;
7517;SDS011;3800;48.922;9.444;2023-09-07T04:27:14;4.57;;;4.17;;
7517;SDS011;3800;48.922;9.444;2023-09-07T04:29:42;5.13;;;4.60;;
7517;SDS011;3800;48.922;9.444;2023-09-07T04:32:10;5.80;;;4.57;;
7517;SDS011;3800;48.922;9.444;2023-09-07T04:34:40;4.93;;;4.33;;
7517;SDS011;3800;48.922;9.444;2023-09-07T04:37:10;5.03;;;4.53;;
7517;SDS011;3800;48.922;9.444;2023-09-07T04:39:38;5.60;;;5.00;;
7517;SDS011;3800;48.922;9.444;2023-09-07T04:42:06;6.17;;;4.70;;
7517;SDS011;3800;48.922;9.444;2023-09-07T04:44:34;5.80;;;5.20;;
7517;SDS011;3800;48.922;9.444;2023-09-07T04:47:03;6.63;;;4.67;;
7517;SDS011;3800;48.922;9.444;2023-09-07T04:49:31;5.40;;;4.90;;
7517;SDS011;3800;48.922;9.444;2023-09-07T04:51:59;5.63;;;5.03;;
7517;SDS011;3800;48.922;9.444;2023-09-07T04:54:28;4.77;;;4.37;;
7517;SDS011;3800;48.922;9.444;2023-09-07T04:56:57;5.37;;;4.87;;
7517;SDS011;3800;48.922;9.444;2023-09-07T04:59:25;6.13;;;5.33;;
7517;SDS011;3800;48.922;9.444;2023-09-07T05:01:53;5.73;;;5.23;;
7517;SDS011;3800;48.922;9.444;2023-09-07T05:04:21;5.50;;;5.00;;
7517;SDS011;3800;48.922;9.444;2023-09-07T05:06:50;5.37;;;4.87;;
7517;SDS011;3800;48.922;9.444;2023-09-07T05:09:18;6.37;;;4.90;;
7517;SDS011;3800;48.922;9.444;2023-09-07T05:11:46;5.07;;;4.63;;
7517;SDS011;3800;48.922;9.444;2023-09-07T05:14:15;6.13;;;4.30;;
7517;SDS011;3800;48.922;9.444;2023-09-07T05:16:44;5.30;;;4.30;;
7517;SDS011;3800;48.922;9.444;2023-09-07T05:19:13;4.73;;;4.27;;
7517;SDS011;3800;48.922;9.444;2023-09-07T05:21:41;4.33;;;3.93;;
7517;SDS011;3800;48.922;9.444;2023-09-07T05:24:12;4.47;;;4.07;;
7517;SDS011;3800;48.922;9.444;2023-09-07T05:26:38;4.17;;;3.77;;
7517;SDS011;3800;48.922;9.444;2023-09-07T05:29:06;5.03;;;4.53;;
7517;SDS011;3800;48.922;9.444;2023-09-07T05:31:35;5.20;;;4.20;;
7517;SDS011;3800;48.922;9.444;2023-09-07T05:34:05;4.80;;;4.40;;
7517;SDS011;3800;48.922;9.444;2023-09-07T05:36:33;4.97;;;4.50;;
7517;SDS011;3800;48.922;9.444;2023-09-07T05:39:01;5.30;;;4.80;;
7517;SDS011;3800;48.922;9.444;2023-09-07T05:41:29;5.20;;;4.70;;
7517;SDS011;3800;48.922;9.444;2023-09-07T05:43:58;5.30;;;4.80;;
7517;SDS011;3800;48.922;9.444;2023-09-07T05:46:26;7.50;;;5.03;;
7517;SDS011;3800;48.922;9.444;2023-09-07T05:48:55;5.57;;;4.77;;
7517;SDS011;3800;48.922;9.444;2023-09-07T05:51:23;5.43;;;4.87;;
7517;SDS011;3800;48.922;9.444;2023-09-07T05:53:53;6.20;;;5.37;;
7517;SDS011;3800;48.922;9.444;2023-09-07T05:56:21;5.17;;;4.67;;
7517;SDS011;3800;48.922;9.444;2023-09-07T05:58:49;7.30;;;6.10;;
7517;SDS011;3800;48.922;9.444;2023-09-07T06:01:17;6.07;;;5.47;;
7517;SDS011;3800;48.922;9.444;2023-09-07T06:03:46;5.73;;;5.20;;
7517;SDS011;3800;48.922;9.444;2023-09-07T06:06:14;7.23;;;5.90;;
7517;SDS011;3800;48.922;9.444;2023-09-07T06:08:42;6.20;;;5.60;;
7517;SDS011;3800;48.922;9.444;2023-09-07T06:11:10;7.30;;;5.43;;
7517;SDS011;3800;48.922;9.444;2023-09-07T06:13:39;10.63;;;6.50;;
7517;SDS011;3800;48.922;9.444;2023-09-07T06:16:07;7.33;;;6.50;;
7517;SDS011;3800;48.922;9.444;2023-09-07T06:18:35;7.23;;;6.03;;
7517;SDS011;3800;48.922;9.444;2023-09-07T06:21:04;10.60;;;7.10;;
7517;SDS011;3800;48.922;9.444;2023-09-07T06:23:32;7.07;;;6.47;;
7517;SDS011;3800;48.922;9.444;2023-09-07T06:26:03;9.30;;;7.73;;
7517;SDS011;3800;48.922;9.444;2023-09-07T06:28:31;10.43;;;8.53;;
7517;SDS011;3800;48.922;9.444;2023-09-07T06:30:59;8.43;;;7.63;;
7517;SDS011;3800;48.922;9.444;2023-09-07T06:33:27;9.50;;;8.57;;
7517;SDS011;3800;48.922;9.444;2023-09-07T06:35:56;9.07;;;8.23;;
7517;SDS011;3800;48.922;9.444;2023-09-07T06:38:25;8.70;;;7.70;;
7517;SDS011;3800;48.922;9.444;2023-09-07T06:40:53;8.10;;;7.30;;
7517;SDS011;3800;48.922;9.444;2023-09-07T06:43:21;9.10;;;8.20;;
7517;SDS011;3800;48.922;9.444;2023-09-07T06:45:50;10.50;;;7.70;;
7517;SDS011;3800;48.922;9.444;2023-09-07T06:48:19;10.47;;;7.73;;
7517;SDS011;3800;48.922;9.444;2023-09-07T06:50:48;9.00;;;7.93;;
7517;SDS011;3800;48.922;9.444;2023-09-07T06:53:16;9.00;;;7.10;;
7517;SDS011;3800;48.922;9.444;2023-09-07T06:55:44;7.87;;;6.93;;
7517;SDS011;3800;48.922;9.444;2023-09-07T06:58:12;8.97;;;6.90;;
7517;SDS011;3800;48.922;9.444;2023-09-07T07:00:41;8.33;;;7.10;;
7517;SDS011;3800;48.922;9.444;2023-09-07T07:03:09;7.80;;;7.03;;
7517;SDS011;3800;48.922;9.444;2023-09-07T07:05:38;8.33;;;6.87;;
7517;SDS011;3800;48.922;9.444;2023-09-07T07:08:06;7.80;;;7.07;;
7517;SDS011;3800;48.922;9.444;2023-09-07T07:10:34;7.47;;;6.77;;
7517;SDS011;3800;48.922;9.444;2023-09-07T07:13:02;7.07;;;6.33;;
7517;SDS011;3800;48.922;9.444;2023-09-07T07:15:31;7.00;;;6.40;;
7517;SDS011;3800;48.922;9.444;2023-09-07T07:17:59;7.17;;;6.53;;
7517;SDS011;3800;48.922;9.444;2023-09-07T07:20:27;7.43;;;6.43;;
7517;SDS011;3800;48.922;9.444;2023-09-07T07:22:56;7.17;;;6.47;;
7517;SDS011;3800;48.922;9.444;2023-09-07T07:25:24;6.60;;;5.90;;
7517;SDS011;3800;48.922;9.444;2023-09-07T07:27:52;6.40;;;5.80;;
7517;SDS011;3800;48.922;9.444;2023-09-07T07:30:20;9.87;;;6.53;;
7517;SDS011;3800;48.922;9.444;2023-09-07T07:32:49;7.00;;;6.30;;
7517;SDS011;3800;48.922;9.444;2023-09-07T07:35:18;6.77;;;6.17;;
7517;SDS011;3800;48.922;9.444;2023-09-07T07:37:46;6.60;;;6.00;;
7517;SDS011;3800;48.922;9.444;2023-09-07T07:40:14;6.10;;;5.60;;
7517;SDS011;3800;48.922;9.444;2023-09-07T07:42:43;6.30;;;5.70;;
7517;SDS011;3800;48.922;9.444;2023-09-07T07:45:13;6.30;;;5.60;;
7517;SDS011;3800;48.922;9.444;2023-09-07T07:47:41;6.23;;;5.73;;
7517;SDS011;3800;48.922;9.444;2023-09-07T07:50:10;8.13;;;5.80;;
7517;SDS011;3800;48.922;9.444;2023-09-07T07:52:38;5.53;;;5.03;;
7517;SDS011;3800;48.922;9.444;2023-09-07T07:55:07;6.53;;;5.93;;
7517;SDS011;3800;48.922;9.444;2023-09-07T07:57:36;7.00;;;5.63;;
7517;SDS011;3800;48.922;9.444;2023-09-07T08:00:04;6.20;;;5.33;;
7517;SDS011;3800;48.922;9.444;2023-09-07T08:02:34;6.10;;;5.50;;
7517;SDS011;3800;48.922;9.444;2023-09-07T08:05:03;5.47;;;4.80;;
7517;SDS011;3800;48.922;9.444;2023-09-07T08:07:31;5.90;;;5.30;;
7517;SDS011;3800;48.922;9.444;2023-09-07T08:09:59;5.90;;;5.00;;
7517;SDS011;3800;48.922;9.444;2023-09-07T08:12:28;5.30;;;4.80;;
7517;SDS011;3800;48.922;9.444;2023-09-07T08:14:56;5.80;;;5.10;;
7517;SDS011;3800;48.922;9.444;2023-09-07T08:17:25;5.37;;;4.87;;
7517;SDS011;3800;48.922;9.444;2023-09-07T08:19:54;6.70;;;5.00;;
7517;SDS011;3800;48.922;9.444;2023-09-07T08:22:23;5.27;;;4.83;;
7517;SDS011;3800;48.922;9.444;2023-09-07T08:24:51;8.23;;;4.53;;
7517;SDS011;3800;48.922;9.444;2023-09-07T08:27:20;5.47;;;4.90;;
7517;SDS011;3800;48.922;9.444;2023-09-07T08:29:48;5.23;;;4.73;;
7517;SDS011;3800;48.922;9.444;2023-09-07T08:32:16;6.50;;;5.00;;
7517;SDS011;3800;48.922;9.444;2023-09-07T08:34:44;6.73;;;4.90;;
7517;SDS011;3800;48.922;9.444;2023-09-07T08:37:13;7.27;;;5.03;;
7517;SDS011;3800;48.922;9.444;2023-09-07T08:39:42;6.70;;;4.70;;
7517;SDS011;3800;48.922;9.444;2023-09-07T08:42:10;4.87;;;4.47;;
7517;SDS011;3800;48.922;9.444;2023-09-07T08:44:38;5.17;;;4.77;;
7517;SDS011;3800;48.922;9.444;2023-09-07T08:47:06;5.47;;;4.40;;
7517;SDS011;3800;48.922;9.444;2023-09-07T08:49:35;5.80;;;4.80;;
7517;SDS011;3800;48.922;9.444;2023-09-07T08:52:03;5.60;;;5.10;;
7517;SDS011;3800;48.922;9.444;2023-09-07T08:54:31;4.80;;;4.30;;
7517;SDS011;3800;48.922;9.444;2023-09-07T08:57:01;5.20;;;4.70;;
7517;SDS011;3800;48.922;9.444;2023-09-07T08:59:28;5.20;;;4.70;;
7517;SDS011;3800;48.922;9.444;2023-09-07T09:01:56;5.30;;;4.80;;
7517;SDS011;3800;48.922;9.444;2023-09-07T09:04:26;4.73;;;4.33;;
7517;SDS011;3800;48.922;9.444;2023-09-07T09:06:54;5.10;;;4.40;;
7517;SDS011;3800;48.922;9.444;2023-09-07T09:09:22;4.93;;;4.47;;
7517;SDS011;3800;48.922;9.444;2023-09-07T09:11:50;4.90;;;4.37;;
7517;SDS011;3800;48.922;9.444;2023-09-07T09:14:20;5.23;;;4.73;;
7517;SDS011;3800;48.922;9.444;2023-09-07T09:16:48;5.33;;;4.10;;
7517;SDS011;3800;48.922;9.444;2023-09-07T09:19:16;4.90;;;4.00;;
7517;SDS011;3800;48.922;9.444;2023-09-07T09:21:44;5.70;;;4.30;;
7517;SDS011;3800;48.922;9.444;2023-09-07T09:24:13;4.80;;;4.40;;
7517;SDS011;3800;48.922;9.444;2023-09-07T09:26:41;6.40;;;4.70;;
7517;SDS011;3800;48.922;9.444;2023-09-07T09:29:10;5.20;;;4.50;;
7517;SDS011;3800;48.922;9.444;2023-09-07T09:31:38;4.80;;;4.40;;
7517;SDS011;3800;48.922;9.444;2023-09-07T09:34:06;5.47;;;4.83;;
7517;SDS011;3800;48.922;9.444;2023-09-07T09:36:35;5.40;;;4.90;;
7517;SDS011;3800;48.922;9.444;2023-09-07T09:39:03;4.40;;;4.00;;
7517;SDS011;3800;48.922;9.444;2023-09-07T09:41:32;6.13;;;4.53;;
7517;SDS011;3800;48.922;9.444;2023-09-07T09:44:03;6.33;;;4.30;;
7517;SDS011;3800;48.922;9.444;2023-09-07T09:46:32;4.67;;;4.13;;
7517;SDS011;3800;48.922;9.444;2023-09-07T09:49:00;4.63;;;4.27;;
7517;SDS011;3800;48.922;9.444;2023-09-07T09:51:28;4.70;;;4.30;;
7517;SDS011;3800;48.922;9.444;2023-09-07T09:53:57;4.30;;;3.90;;
7517;SDS011;3800;48.922;9.444;2023-09-07T09:56:26;6.13;;;4.10;;
7517;SDS011;3800;48.922;9.444;2023-09-07T09:58:54;4.60;;;4.20;;
7517;SDS011;3800;48.922;9.444;2023-09-07T10:01:23;5.60;;;4.20;;
7517;SDS011;3800;48.922;9.444;2023-09-07T10:03:51;4.80;;;4.30;;
7517;SDS011;3800;48.922;9.444;2023-09-07T10:06:23;4.43;;;4.03;;
7517;SDS011;3800;48.922;9.444;2023-09-07T10:08:54;4.47;;;4.00;;
7517;SDS011;3800;48.922;9.444;2023-09-07T10:11:29;5.30;;;4.10;;
7517;SDS011;3800;48.922;9.444;2023-09-07T10:14:01;4.43;;;4.03;;
7517;SDS011;3800;48.922;9.444;2023-09-07T10:19:14;4.60;;;4.03;;
7517;SDS011;3800;48.922;9.444;2023-09-07T10:21:44;5.87;;;4.17;;
7517;SDS011;3800;48.922;9.444;2023-09-07T10:24:23;5.20;;;4.50;;
7517;SDS011;3800;48.922;9.444;2023-09-07T10:26:58;7.13;;;4.47;;
7517;SDS011;3800;48.922;9.444;2023-09-07T10:32:09;4.63;;;4.20;;
7517;SDS011;3800;48.922;9.444;2023-09-07T10:34:37;4.93;;;4.27;;
7517;SDS011;3800;48.922;9.444;2023-09-07T10:37:06;4.23;;;3.83;;
7517;SDS011;3800;48.922;9.444;2023-09-07T10:39:34;5.23;;;4.50;;
7517;SDS011;3800;48.922;9.444;2023-09-07T10:42:02;4.63;;;4.23;;
7517;SDS011;3800;48.922;9.444;2023-09-07T10:44:31;6.13;;;4.37;;
7517;SDS011;3800;48.922;9.444;2023-09-07T10:47:00;4.20;;;3.80;;
7517;SDS011;3800;48.922;9.444;2023-09-07T10:49:28;4.33;;;3.93;;
7517;SDS011;3800;48.922;9.444;2023-09-07T10:51:56;4.90;;;4.10;;
7517;SDS011;3800;48.922;9.444;2023-09-07T10:54:25;4.43;;;4.03;;
7517;SDS011;3800;48.922;9.444;2023-09-07T10:56:54;4.87;;;4.47;;
7517;SDS011;3800;48.922;9.444;2023-09-07T10:59:23;4.37;;;3.97;;
7517;SDS011;3800;48.922;9.444;2023-09-07T11:01:51;5.37;;;4.37;;
7517;SDS011;3800;48.922;9.444;2023-09-07T11:04:20;5.50;;;4.60;;
7517;SDS011;3800;48.922;9.444;2023-09-07T11:06:49;5.23;;;4.40;;
7517;SDS011;3800;48.922;9.444;2023-09-07T11:09:19;4.60;;;4.10;;
7517;SDS011;3800;48.922;9.444;2023-09-07T11:11:46;4.30;;;4.00;;
7517;SDS011;3800;48.922;9.444;2023-09-07T11:14:15;6.93;;;3.87;;
7517;SDS011;3800;48.922;9.444;2023-09-07T11:16:43;4.83;;;4.43;;
7517;SDS011;3800;48.922;9.444;2023-09-07T11:19:12;5.17;;;4.00;;
7517;SDS011;3800;48.922;9.444;2023-09-07T11:21:40;4.60;;;3.93;;
7517;SDS011;3800;48.922;9.444;2023-09-07T11:24:08;5.33;;;4.13;;
7517;SDS011;3800;48.922;9.444;2023-09-07T11:26:43;4.30;;;3.90;;
7517;SDS011;3800;48.922;9.444;2023-09-07T11:29:14;4.60;;;4.00;;
7517;SDS011;3800;48.922;9.444;2023-09-07T11:31:43;6.07;;;4.30;;
7517;SDS011;3800;48.922;9.444;2023-09-07T11:34:11;5.93;;;4.20;;
7517;SDS011;3800;48.922;9.444;2023-09-07T11:36:40;4.60;;;4.20;;
7517;SDS011;3800;48.922;9.444;2023-09-07T11:39:09;4.63;;;3.90;;
7517;SDS011;3800;48.922;9.444;2023-09-07T11:41:41;4.57;;;3.90;;
7517;SDS011;3800;48.922;9.444;2023-09-07T11:44:09;4.83;;;3.90;;
7517;SDS011;3800;48.922;9.444;2023-09-07T11:46:37;4.37;;;3.80;;
7517;SDS011;3800;48.922;9.444;2023-09-07T11:49:05;4.00;;;3.60;;
7517;SDS011;3800;48.922;9.444;2023-09-07T11:51:34;5.10;;;3.87;;
7517;SDS011;3800;48.922;9.444;2023-09-07T11:54:03;5.00;;;3.83;;
7517;SDS011;3800;48.922;9.444;2023-09-07T11:56:31;4.63;;;3.60;;
7517;SDS011;3800;48.922;9.444;2023-09-07T11:58:59;4.67;;;3.83;;
7517;SDS011;3800;48.922;9.444;2023-09-07T12:01:28;5.03;;;3.70;;
7517;SDS011;3800;48.922;9.444;2023-09-07T12:03:57;5.23;;;3.70;;
7517;SDS011;3800;48.922;9.444;2023-09-07T12:06:25;5.30;;;3.90;;
7517;SDS011;3800;48.922;9.444;2023-09-07T12:09:04;7.03;;;3.70;;
7517;SDS011;3800;48.922;9.444;2023-09-07T12:11:34;4.30;;;3.70;;
7517;SDS011;3800;48.922;9.444;2023-09-07T12:14:02;5.27;;;4.10;;
7517;SDS011;3800;48.922;9.444;2023-09-07T12:16:31;5.20;;;3.90;;
7517;SDS011;3800;48.922;9.444;2023-09-07T12:19:00;5.73;;;3.60;;
7517;SDS011;3800;48.922;9.444;2023-09-07T12:21:28;4.20;;;3.80;;
7517;SDS011;3800;48.922;9.444;2023-09-07T12:23:56;4.23;;;3.80;;
7517;SDS011;3800;48.922;9.444;2023-09-07T12:26:25;4.70;;;3.70;;
7517;SDS011;3800;48.922;9.444;2023-09-07T12:28:54;4.80;;;3.80;;
7517;SDS011;3800;48.922;9.444;2023-09-07T12:31:22;4.07;;;3.77;;
7517;SDS011;3800;48.922;9.444;2023-09-07T12:33:51;3.80;;;3.50;;
7517;SDS011;3800;48.922;9.444;2023-09-07T12:36:19;5.43;;;3.97;;
7517;SDS011;3800;48.922;9.444;2023-09-07T12:38:48;4.27;;;3.90;;
7517;SDS011;3800;48.922;9.444;2023-09-07T12:41:16;4.20;;;3.80;;
7517;SDS011;3800;48.922;9.444;2023-09-07T12:43:44;4.20;;;3.80;;
7517;SDS011;3800;48.922;9.444;2023-09-07T12:46:13;4.03;;;3.40;;
7517;SDS011;3800;48.922;9.444;2023-09-07T12:48:41;4.70;;;3.80;;
7517;SDS011;3800;48.922;9.444;2023-09-07T12:51:11;4.00;;;3.60;;
7517;SDS011;3800;48.922;9.444;2023-09-07T12:53:39;5.33;;;3.80;;
7517;SDS011;3800;48.922;9.444;2023-09-07T12:56:07;6.00;;;3.50;;
7517;SDS011;3800;48.922;9.444;2023-09-07T12:58:36;5.87;;;3.50;;
7517;SDS011;3800;48.922;9.444;2023-09-07T13:01:05;4.50;;;3.63;;
7517;SDS011;3800;48.922;9.444;2023-09-07T13:03:34;6.07;;;3.70;;
7517;SDS011;3800;48.922;9.444;2023-09-07T13:06:02;4.10;;;3.53;;
7517;SDS011;3800;48.922;9.444;2023-09-07T13:08:30;4.33;;;3.63;;
7517;SDS011;3800;48.922;9.444;2023-09-07T13:10:58;4.03;;;3.53;;
7517;SDS011;3800;48.922;9.444;2023-09-07T13:13:27;4.10;;;3.53;;
7517;SDS011;3800;48.922;9.444;2023-09-07T13:15:55;5.57;;;3.40;;
7517;SDS011;3800;48.922;9.444;2023-09-07T13:18:23;4.20;;;3.80;;
7517;SDS011;3800;48.922;9.444;2023-09-07T13:20:52;4.13;;;3.73;;
7517;SDS011;3800;48.922;9.444;2023-09-07T13:23:20;4.57;;;3.70;;
7517;SDS011;3800;48.922;9.444;2023-09-07T13:25:48;4.30;;;3.90;;
7517;SDS011;3800;48.922;9.444;2023-09-07T13:28:16;4.37;;;3.43;;
7517;SDS011;3800;48.922;9.444;2023-09-07T13:30:45;3.77;;;3.33;;
7517;SDS011;3800;48.922;9.444;2023-09-07T13:33:13;5.43;;;3.60;;
7517;SDS011;3800;48.922;9.444;2023-09-07T13:35:41;4.03;;;3.63;;
7517;SDS011;3800;48.922;9.444;2023-09-07T13:38:09;3.53;;;3.23;;
7517;SDS011;3800;48.922;9.444;2023-09-07T13:40:38;4.57;;;3.70;;
7517;SDS011;3800;48.922;9.444;2023-09-07T13:43:06;3.87;;;3.57;;
7517;SDS011;3800;48.922;9.444;2023-09-07T13:45:35;4.70;;;3.47;;
7517;SDS011;3800;48.922;9.444;2023-09-07T13:48:03;5.03;;;3.70;;
7517;SDS011;3800;48.922;9.444;2023-09-07T13:50:31;4.00;;;3.30;;
7517;SDS011;3800;48.922;9.444;2023-09-07T13:53:00;3.93;;;3.63;;
7517;SDS011;3800;48.922;9.444;2023-09-07T13:55:28;3.90;;;3.50;;
7517;SDS011;3800;48.922;9.444;2023-09-07T13:57:56;3.93;;;3.53;;
7517;SDS011;3800;48.922;9.444;2023-09-07T14:00:25;4.63;;;4.23;;
7517;SDS011;3800;48.922;9.444;2023-09-07T14:02:54;4.43;;;3.77;;
7517;SDS011;3800;48.922;9.444;2023-09-07T14:05:22;5.87;;;3.90;;
7517;SDS011;3800;48.922;9.444;2023-09-07T14:07:51;4.93;;;4.00;;
7517;SDS011;3800;48.922;9.444;2023-09-07T14:10:19;4.33;;;3.43;;
7517;SDS011;3800;48.922;9.444;2023-09-07T14:12:47;5.07;;;3.50;;
7517;SDS011;3800;48.922;9.444;2023-09-07T14:15:16;4.90;;;3.37;;
7517;SDS011;3800;48.922;9.444;2023-09-07T14:17:44;3.60;;;3.30;;
7517;SDS011;3800;48.922;9.444;2023-09-07T14:20:12;6.33;;;3.67;;
7517;SDS011;3800;48.922;9.444;2023-09-07T14:22:40;4.73;;;3.30;;
7517;SDS011;3800;48.922;9.444;2023-09-07T14:25:09;3.80;;;3.50;;
7517;SDS011;3800;48.922;9.444;2023-09-07T14:27:37;3.90;;;3.50;;
7517;SDS011;3800;48.922;9.444;2023-09-07T14:30:06;5.07;;;3.33;;
7517;SDS011;3800;48.922;9.444;2023-09-07T14:32:35;3.60;;;3.30;;
7517;SDS011;3800;48.922;9.444;2023-09-07T14:35:03;3.70;;;3.30;;
7517;SDS011;3800;48.922;9.444;2023-09-07T14:37:32;4.10;;;3.30;;
7517;SDS011;3800;48.922;9.444;2023-09-07T14:40:02;4.97;;;3.07;;
7517;SDS011;3800;48.922;9.444;2023-09-07T14:42:30;4.27;;;3.87;;
7517;SDS011;3800;48.922;9.444;2023-09-07T14:44:59;4.50;;;3.20;;
7517;SDS011;3800;48.922;9.444;2023-09-07T14:47:28;3.60;;;3.30;;
7517;SDS011;3800;48.922;9.444;2023-09-07T14:49:56;6.63;;;3.63;;
7517;SDS011;3800;48.922;9.444;2023-09-07T14:52:24;4.12;;;2.90;;
7517;SDS011;3800;48.922;9.444;2023-09-07T14:54:52;3.30;;;3.00;;
7517;SDS011;3800;48.922;9.444;2023-09-07T14:57:21;3.43;;;3.07;;
7517;SDS011;3800;48.922;9.444;2023-09-07T14:59:49;5.07;;;3.40;;
7517;SDS011;3800;48.922;9.444;2023-09-07T15:02:17;4.17;;;3.13;;
7517;SDS011;3800;48.922;9.444;2023-09-07T15:04:45;4.50;;;3.50;;
7517;SDS011;3800;48.922;9.444;2023-09-07T15:07:14;4.33;;;3.00;;
7517;SDS011;3800;48.922;9.444;2023-09-07T15:09:42;3.10;;;2.80;;
7517;SDS011;3800;48.922;9.444;2023-09-07T15:12:10;4.03;;;3.23;;
7517;SDS011;3800;48.922;9.444;2023-09-07T15:14:39;5.73;;;3.00;;
7517;SDS011;3800;48.922;9.444;2023-09-07T15:17:07;3.67;;;3.10;;
7517;SDS011;3800;48.922;9.444;2023-09-07T15:19:36;4.07;;;3.17;;
7517;SDS011;3800;48.922;9.444;2023-09-07T15:22:04;3.97;;;3.23;;
7517;SDS011;3800;48.922;9.444;2023-09-07T15:24:32;3.57;;;3.00;;
7517;SDS011;3800;48.922;9.444;2023-09-07T15:27:07;3.57;;;3.10;;
7517;SDS011;3800;48.922;9.444;2023-09-07T15:29:37;6.63;;;3.50;;